createdAt,value
2017-07-30T00:00:01.658Z,21.39
2017-07-30T00:00:42.551Z,21.25
2017-07-30T00:01:23.447Z,21.3
2017-07-30T00:02:04.340Z,21.3
2017-07-30T00:02:45.234Z,21.33
2017-07-30T00:03:26.128Z,21.3
2017-07-30T00:04:07.033Z,21.25
2017-07-30T00:04:47.930Z,21.27
2017-07-30T00:05:28.839Z,21.3
2017-07-30T00:06:09.738Z,21.33
2017-07-30T00:06:50.632Z,21.22
2017-07-30T00:07:31.532Z,21.24
2017-07-30T00:08:12.422Z,21.21
2017-07-30T00:08:53.316Z,21.18
2017-07-30T00:09:34.210Z,21.18
2017-07-30T00:10:15.105Z,21.21
2017-07-30T00:10:55.998Z,21.21
2017-07-30T00:11:36.897Z,21.36
2017-07-30T00:12:17.784Z,21.21
2017-07-30T00:12:58.678Z,21.3
2017-07-30T00:13:39.574Z,21.27
2017-07-30T00:14:20.464Z,21.32
2017-07-30T00:15:01.369Z,21.21
2017-07-30T00:15:42.264Z,21.14
2017-07-30T00:16:23.161Z,21.24
2017-07-30T00:17:04.047Z,21.24
2017-07-30T00:17:44.950Z,21.21
2017-07-30T00:18:25.836Z,21.29
2017-07-30T00:19:06.742Z,21.2
2017-07-30T00:19:47.634Z,21.17
2017-07-30T00:20:28.521Z,21.09
2017-07-30T00:21:09.423Z,21.14
2017-07-30T00:21:50.306Z,21.15
2017-07-30T00:22:31.219Z,21.07
2017-07-30T00:23:12.120Z,21.05
2017-07-30T00:23:53.010Z,21.03
2017-07-30T00:24:33.898Z,21.06
2017-07-30T00:25:14.799Z,21.06
2017-07-30T00:25:55.684Z,21.02
2017-07-30T00:26:36.593Z,21.02
2017-07-30T00:27:17.490Z,21.05
2017-07-30T00:27:58.387Z,21.05
2017-07-30T00:28:39.280Z,21.11
2017-07-30T00:29:20.175Z,21.07
2017-07-30T00:30:01.083Z,21.03
2017-07-30T00:30:41.957Z,20.97
2017-07-30T00:31:22.850Z,21
2017-07-30T00:32:03.743Z,21.02
2017-07-30T00:32:44.641Z,21.03
2017-07-30T00:33:25.527Z,20.99
2017-07-30T00:34:06.432Z,21.14
2017-07-30T00:34:47.321Z,21.05
2017-07-30T00:35:28.220Z,20.97
2017-07-30T00:36:09.116Z,21.05
2017-07-30T00:36:50.001Z,20.99
2017-07-30T00:37:30.881Z,21
2017-07-30T00:38:11.789Z,20.99
2017-07-30T00:38:52.675Z,21
2017-07-30T00:39:33.583Z,20.96
2017-07-30T00:40:14.472Z,20.99
2017-07-30T00:40:55.354Z,20.99
2017-07-30T00:41:36.260Z,21
2017-07-30T00:42:17.151Z,21
2017-07-30T00:42:58.055Z,21
2017-07-30T00:43:38.965Z,20.99
2017-07-30T00:44:19.847Z,20.96
2017-07-30T00:45:00.780Z,20.97
2017-07-30T00:45:41.670Z,20.96
2017-07-30T00:46:22.570Z,21
2017-07-30T00:47:03.477Z,20.96
2017-07-30T00:47:44.361Z,20.97
2017-07-30T00:48:25.256Z,20.97
2017-07-30T00:49:06.150Z,20.99
2017-07-30T00:49:47.036Z,20.95
2017-07-30T00:50:27.950Z,21.03
2017-07-30T00:51:08.840Z,21.02
2017-07-30T00:51:49.742Z,21.02
2017-07-30T00:52:30.633Z,20.88
2017-07-30T00:53:11.527Z,20.85
2017-07-30T00:55:30.471Z,20.88
2017-07-30T00:56:11.374Z,20.87
2017-07-30T00:56:52.277Z,20.9
2017-07-30T00:57:33.168Z,20.87
2017-07-30T00:58:14.069Z,20.88
2017-07-30T00:58:54.958Z,20.92
2017-07-30T00:59:35.883Z,20.87
2017-07-30T01:00:16.775Z,20.87
2017-07-30T01:00:57.670Z,20.9
2017-07-30T01:01:38.564Z,20.8
2017-07-30T01:02:19.456Z,20.81
2017-07-30T01:03:00.355Z,20.8
2017-07-30T01:03:41.253Z,20.78
2017-07-30T01:04:22.154Z,20.72
2017-07-30T01:05:03.057Z,20.87
2017-07-30T01:05:43.944Z,20.82
2017-07-30T01:06:24.831Z,20.77
2017-07-30T01:07:05.736Z,20.87
2017-07-30T01:07:46.622Z,20.81
2017-07-30T01:08:27.539Z,20.77
2017-07-30T01:09:08.415Z,20.77
2017-07-30T01:09:49.300Z,20.81
2017-07-30T01:10:30.208Z,20.72
2017-07-30T01:11:11.096Z,20.81
2017-07-30T01:11:52.002Z,20.81
2017-07-30T01:12:32.879Z,20.7
2017-07-30T01:13:13.771Z,20.74
2017-07-30T01:13:54.663Z,20.78
2017-07-30T01:14:35.564Z,20.74
2017-07-30T01:15:16.454Z,20.8
2017-07-30T01:15:57.345Z,20.7
2017-07-30T01:16:38.244Z,20.7
2017-07-30T01:17:19.143Z,20.7
2017-07-30T01:18:00.020Z,20.77
2017-07-30T01:18:40.938Z,20.72
2017-07-30T01:19:21.824Z,20.77
2017-07-30T01:20:02.722Z,20.77
2017-07-30T01:20:43.611Z,20.69
2017-07-30T01:21:24.498Z,20.7
2017-07-30T01:22:05.400Z,20.65
2017-07-30T01:22:46.289Z,20.63
2017-07-30T01:23:27.176Z,20.66
2017-07-30T01:24:08.066Z,20.58
2017-07-30T01:24:48.961Z,20.6
2017-07-30T01:25:29.849Z,20.63
2017-07-30T01:26:10.733Z,20.6
2017-07-30T01:26:51.638Z,20.62
2017-07-30T01:27:32.523Z,20.74
2017-07-30T01:28:13.407Z,20.69
2017-07-30T01:28:54.316Z,20.6
2017-07-30T01:29:35.198Z,20.67
2017-07-30T01:30:16.080Z,20.7
2017-07-30T01:30:56.981Z,20.72
2017-07-30T01:31:37.874Z,20.77
2017-07-30T01:32:18.762Z,20.74
2017-07-30T01:32:59.660Z,20.78
2017-07-30T01:33:40.552Z,20.74
2017-07-30T01:34:21.450Z,20.77
2017-07-30T01:35:02.351Z,20.8
2017-07-30T01:35:43.242Z,20.87
2017-07-30T01:36:24.143Z,20.88
2017-07-30T01:37:05.038Z,20.88
2017-07-30T01:37:45.932Z,20.92
2017-07-30T01:38:26.849Z,20.9
2017-07-30T01:39:07.738Z,20.77
2017-07-30T01:39:48.622Z,20.81
2017-07-30T01:40:29.527Z,20.87
2017-07-30T01:41:10.413Z,20.8
2017-07-30T01:41:51.306Z,20.77
2017-07-30T01:42:32.204Z,20.77
2017-07-30T01:43:13.071Z,20.7
2017-07-30T01:43:53.975Z,20.77
2017-07-30T01:44:34.880Z,20.7
2017-07-30T01:45:15.763Z,20.7
2017-07-30T01:45:56.658Z,20.72
2017-07-30T01:46:37.547Z,20.7
2017-07-30T01:47:18.442Z,20.74
2017-07-30T01:47:59.337Z,20.72
2017-07-30T01:48:40.231Z,20.77
2017-07-30T01:49:21.128Z,20.72
2017-07-30T01:50:02.028Z,20.81
2017-07-30T01:50:42.922Z,20.69
2017-07-30T01:51:23.821Z,20.81
2017-07-30T01:52:04.731Z,20.88
2017-07-30T01:52:45.613Z,20.77
2017-07-30T01:53:26.507Z,20.88
2017-07-30T01:54:07.399Z,20.85
2017-07-30T01:54:48.291Z,20.84
2017-07-30T01:55:29.174Z,20.85
2017-07-30T01:56:10.074Z,20.87
2017-07-30T01:56:50.959Z,20.99
2017-07-30T01:57:31.852Z,20.92
2017-07-30T01:58:12.751Z,20.97
2017-07-30T01:58:53.640Z,20.99
2017-07-30T01:59:34.542Z,20.97
2017-07-30T02:00:15.434Z,20.93
2017-07-30T02:00:56.328Z,20.93
2017-07-30T02:01:37.225Z,20.96
2017-07-30T02:02:18.111Z,21
2017-07-30T02:02:59.014Z,20.97
2017-07-30T02:03:39.907Z,20.97
2017-07-30T02:04:20.801Z,21
2017-07-30T02:05:01.690Z,20.99
2017-07-30T02:05:42.583Z,20.95
2017-07-30T02:06:23.488Z,21
2017-07-30T02:07:04.368Z,20.97
2017-07-30T02:07:45.262Z,20.96
2017-07-30T02:08:26.152Z,21
2017-07-30T02:09:07.048Z,20.92
2017-07-30T02:09:47.944Z,20.9
2017-07-30T02:10:28.836Z,20.9
2017-07-30T02:11:09.716Z,20.92
2017-07-30T02:11:50.604Z,20.84
2017-07-30T02:12:31.490Z,20.82
2017-07-30T02:13:12.392Z,20.78
2017-07-30T02:13:53.276Z,20.84
2017-07-30T02:14:34.166Z,20.81
2017-07-30T02:15:15.058Z,20.77
2017-07-30T02:15:55.929Z,20.72
2017-07-30T02:16:36.815Z,20.75
2017-07-30T02:17:17.701Z,20.7
2017-07-30T02:17:58.593Z,20.7
2017-07-30T02:18:39.492Z,20.65
2017-07-30T02:19:20.376Z,20.62
2017-07-30T02:20:01.288Z,20.56
2017-07-30T02:20:42.183Z,20.62
2017-07-30T02:21:23.073Z,20.62
2017-07-30T02:22:03.958Z,20.56
2017-07-30T02:22:44.845Z,20.65
2017-07-30T02:23:25.746Z,20.56
2017-07-30T02:24:06.630Z,20.63
2017-07-30T02:24:47.556Z,20.63
2017-07-30T02:25:28.446Z,20.55
2017-07-30T02:26:09.336Z,20.48
2017-07-30T02:26:50.221Z,20.51
2017-07-30T02:27:31.123Z,20.39
2017-07-30T02:28:12.014Z,20.4
2017-07-30T02:28:52.908Z,20.4
2017-07-30T02:29:33.808Z,20.41
2017-07-30T02:30:14.704Z,20.41
2017-07-30T02:30:57.113Z,20.47
2017-07-30T02:31:38.009Z,20.43
2017-07-30T02:32:18.919Z,20.43
2017-07-30T02:32:59.797Z,20.5
2017-07-30T02:33:40.689Z,20.43
2017-07-30T02:34:21.592Z,20.41
2017-07-30T02:35:02.477Z,20.31
2017-07-30T02:35:43.363Z,20.29
2017-07-30T02:36:24.257Z,20.29
2017-07-30T02:37:05.151Z,20.29
2017-07-30T02:37:46.049Z,20.28
2017-07-30T02:38:26.947Z,20.22
2017-07-30T02:39:07.837Z,20.32
2017-07-30T02:39:48.725Z,20.31
2017-07-30T02:40:29.620Z,20.24
2017-07-30T02:41:10.510Z,20.16
2017-07-30T02:41:51.402Z,20.24
2017-07-30T02:42:32.293Z,20.18
2017-07-30T02:43:13.187Z,20.22
2017-07-30T02:43:54.075Z,20.22
2017-07-30T02:44:34.977Z,20.24
2017-07-30T02:45:15.856Z,20.22
2017-07-30T02:45:56.746Z,20.21
2017-07-30T02:46:37.655Z,20.22
2017-07-30T02:47:18.543Z,20.22
2017-07-30T02:47:59.440Z,20.21
2017-07-30T02:48:40.358Z,20.04
2017-07-30T02:49:21.248Z,20.18
2017-07-30T02:50:02.133Z,20.11
2017-07-30T02:50:43.026Z,20.07
2017-07-30T02:51:23.922Z,20.04
2017-07-30T02:52:04.818Z,20.14
2017-07-30T02:52:45.704Z,20.14
2017-07-30T02:53:26.602Z,20
2017-07-30T02:54:07.494Z,20.16
2017-07-30T02:54:48.381Z,20.14
2017-07-30T02:55:29.286Z,20.09
2017-07-30T02:56:10.179Z,20.11
2017-07-30T02:56:51.070Z,20.18
2017-07-30T02:57:31.969Z,20.21
2017-07-30T02:58:12.861Z,20.07
2017-07-30T02:58:53.757Z,20.14
2017-07-30T02:59:34.657Z,20.21
2017-07-30T03:00:15.547Z,20.07
2017-07-30T03:00:56.441Z,20.14
2017-07-30T03:01:37.324Z,20.09
2017-07-30T03:02:18.215Z,20.13
2017-07-30T03:02:59.108Z,20.16
2017-07-30T03:03:39.999Z,20.04
2017-07-30T03:04:20.898Z,20.02
2017-07-30T03:05:01.792Z,20.09
2017-07-30T03:05:42.687Z,20.11
2017-07-30T03:06:23.576Z,20
2017-07-30T03:07:04.470Z,20.03
2017-07-30T03:07:45.367Z,20.02
2017-07-30T03:08:26.259Z,19.92
2017-07-30T03:09:07.158Z,19.96
2017-07-30T03:09:48.046Z,19.88
2017-07-30T03:10:28.941Z,19.94
2017-07-30T03:11:09.836Z,19.91
2017-07-30T03:11:50.724Z,19.94
2017-07-30T03:12:31.617Z,19.85
2017-07-30T03:13:12.507Z,19.89
2017-07-30T03:13:53.404Z,19.86
2017-07-30T03:14:34.299Z,19.82
2017-07-30T03:15:15.193Z,19.85
2017-07-30T03:15:56.085Z,19.95
2017-07-30T03:16:37.002Z,19.92
2017-07-30T03:17:17.877Z,19.92
2017-07-30T03:17:58.773Z,19.88
2017-07-30T03:18:39.670Z,19.92
2017-07-30T03:19:20.562Z,19.85
2017-07-30T03:20:01.453Z,19.99
2017-07-30T03:20:42.346Z,19.91
2017-07-30T03:21:23.243Z,19.89
2017-07-30T03:22:04.127Z,19.91
2017-07-30T03:22:45.031Z,19.91
2017-07-30T03:23:25.914Z,19.88
2017-07-30T03:24:06.808Z,19.77
2017-07-30T03:24:47.694Z,19.86
2017-07-30T03:25:28.587Z,19.86
2017-07-30T03:26:09.482Z,19.95
2017-07-30T03:26:50.373Z,19.81
2017-07-30T03:27:31.258Z,19.88
2017-07-30T03:28:12.152Z,19.86
2017-07-30T03:28:53.042Z,19.81
2017-07-30T03:29:33.935Z,19.91
2017-07-30T03:30:14.829Z,19.86
2017-07-30T03:30:55.731Z,19.85
2017-07-30T03:31:36.631Z,19.85
2017-07-30T03:32:17.524Z,19.79
2017-07-30T03:32:58.430Z,19.92
2017-07-30T03:33:39.310Z,19.82
2017-07-30T03:34:20.200Z,19.88
2017-07-30T03:35:01.087Z,19.89
2017-07-30T03:35:41.982Z,19.91
2017-07-30T03:36:22.875Z,19.94
2017-07-30T03:37:03.768Z,19.99
2017-07-30T03:37:44.652Z,19.94
2017-07-30T03:38:25.531Z,19.95
2017-07-30T03:39:06.425Z,20.04
2017-07-30T03:39:47.321Z,19.94
2017-07-30T03:40:28.210Z,19.89
2017-07-30T03:41:09.100Z,19.94
2017-07-30T03:41:49.992Z,19.95
2017-07-30T03:42:30.903Z,20.04
2017-07-30T03:43:11.789Z,20.07
2017-07-30T03:43:52.679Z,19.96
2017-07-30T03:44:33.574Z,20
2017-07-30T03:45:14.468Z,20.03
2017-07-30T03:45:55.361Z,20.04
2017-07-30T03:46:36.256Z,20.02
2017-07-30T03:47:17.145Z,20.02
2017-07-30T03:47:58.039Z,20.04
2017-07-30T03:48:38.934Z,20.09
2017-07-30T03:49:19.831Z,20.16
2017-07-30T03:50:00.714Z,20.07
2017-07-30T03:50:41.607Z,20
2017-07-30T03:51:22.501Z,19.96
2017-07-30T03:52:03.392Z,19.99
2017-07-30T03:52:44.288Z,20.09
2017-07-30T03:53:25.181Z,20.11
2017-07-30T03:54:06.081Z,20.09
2017-07-30T03:54:46.955Z,20.18
2017-07-30T03:55:27.856Z,20.06
2017-07-30T03:56:08.751Z,20.14
2017-07-30T03:56:49.640Z,20.02
2017-07-30T03:57:30.534Z,20.13
2017-07-30T03:58:11.430Z,20.06
2017-07-30T03:58:52.344Z,20.07
2017-07-30T03:59:33.238Z,20.09
2017-07-30T04:00:14.134Z,20.06
2017-07-30T04:00:55.030Z,20.06
2017-07-30T04:01:35.923Z,20.07
2017-07-30T04:02:16.821Z,20.11
2017-07-30T04:02:57.718Z,20.09
2017-07-30T04:03:38.599Z,20.13
2017-07-30T04:04:19.491Z,20.1
2017-07-30T04:05:00.386Z,20.18
2017-07-30T04:05:41.279Z,20.21
2017-07-30T04:06:22.154Z,20.18
2017-07-30T04:07:03.052Z,20.16
2017-07-30T04:07:43.941Z,20.24
2017-07-30T04:08:24.826Z,20.24
2017-07-30T04:09:05.722Z,20.22
2017-07-30T04:09:46.615Z,20.18
2017-07-30T04:10:27.522Z,20.19
2017-07-30T04:11:08.417Z,20.18
2017-07-30T04:11:49.367Z,20.18
2017-07-30T04:12:30.256Z,20.22
2017-07-30T04:13:11.139Z,20.04
2017-07-30T04:13:52.028Z,20.04
2017-07-30T04:14:32.921Z,20.09
2017-07-30T04:16:01.064Z,20.1
2017-07-30T04:16:41.945Z,20.11
2017-07-30T04:17:22.836Z,20.11
2017-07-30T04:18:03.722Z,20.13
2017-07-30T04:18:44.622Z,20.11
2017-07-30T04:19:25.513Z,20.09
2017-07-30T04:20:06.402Z,20.09
2017-07-30T04:20:47.315Z,20.09
2017-07-30T04:21:28.185Z,20.18
2017-07-30T04:22:09.074Z,20.13
2017-07-30T04:22:49.960Z,20.18
2017-07-30T04:23:30.849Z,20.1
2017-07-30T04:24:11.733Z,20.09
2017-07-30T04:24:52.625Z,20.1
2017-07-30T04:25:33.526Z,20.13
2017-07-30T04:26:14.422Z,20.14
2017-07-30T04:26:55.316Z,20.24
2017-07-30T04:27:36.205Z,20.21
2017-07-30T04:28:17.117Z,20.25
2017-07-30T04:28:58.007Z,20.31
2017-07-30T04:29:38.892Z,20.28
2017-07-30T04:30:19.794Z,20.24
2017-07-30T04:31:00.699Z,20.31
2017-07-30T04:31:41.570Z,20.36
2017-07-30T04:32:22.471Z,20.32
2017-07-30T04:33:03.369Z,20.43
2017-07-30T04:33:44.248Z,20.41
2017-07-30T04:34:25.146Z,20.43
2017-07-30T04:35:06.041Z,20.41
2017-07-30T04:35:46.927Z,20.5
2017-07-30T04:36:27.824Z,20.48
2017-07-30T04:37:08.724Z,20.65
2017-07-30T04:37:49.609Z,20.58
2017-07-30T04:38:30.503Z,20.5
2017-07-30T04:39:11.400Z,20.48
2017-07-30T04:39:52.268Z,20.44
2017-07-30T04:40:33.172Z,20.37
2017-07-30T04:41:14.092Z,20.4
2017-07-30T04:41:54.985Z,20.31
2017-07-30T04:42:35.885Z,20.36
2017-07-30T04:43:16.767Z,20.34
2017-07-30T04:43:57.668Z,20.34
2017-07-30T04:44:38.547Z,20.4
2017-07-30T04:45:19.468Z,20.34
2017-07-30T04:46:00.366Z,20.41
2017-07-30T04:46:41.263Z,20.4
2017-07-30T04:47:22.159Z,20.43
2017-07-30T04:48:03.059Z,20.47
2017-07-30T04:48:43.941Z,20.48
2017-07-30T04:49:24.834Z,20.47
2017-07-30T04:50:05.724Z,20.41
2017-07-30T04:50:46.646Z,20.5
2017-07-30T04:51:27.536Z,20.56
2017-07-30T04:52:08.422Z,20.52
2017-07-30T04:52:49.310Z,20.47
2017-07-30T04:53:30.244Z,20.63
2017-07-30T04:54:11.127Z,20.56
2017-07-30T04:54:52.019Z,20.58
2017-07-30T04:55:32.916Z,20.58
2017-07-30T04:56:13.796Z,20.66
2017-07-30T04:56:54.699Z,20.65
2017-07-30T04:57:35.581Z,20.58
2017-07-30T04:58:16.461Z,20.6
2017-07-30T04:58:57.366Z,20.56
2017-07-30T04:59:38.263Z,20.59
2017-07-30T05:00:19.138Z,20.58
2017-07-30T05:01:00.893Z,20.58
2017-07-30T05:01:41.811Z,20.58
2017-07-30T05:02:22.709Z,20.67
2017-07-30T05:03:03.598Z,20.66
2017-07-30T05:03:44.490Z,20.74
2017-07-30T05:04:25.395Z,20.77
2017-07-30T05:05:06.275Z,20.72
2017-07-30T05:05:47.165Z,20.75
2017-07-30T05:06:28.063Z,20.7
2017-07-30T05:07:08.973Z,20.75
2017-07-30T05:07:49.847Z,20.81
2017-07-30T05:08:30.738Z,20.81
2017-07-30T05:09:11.630Z,20.9
2017-07-30T05:09:52.524Z,20.92
2017-07-30T05:10:33.418Z,20.88
2017-07-30T05:11:14.293Z,20.87
2017-07-30T05:11:55.179Z,20.9
2017-07-30T05:12:36.070Z,20.88
2017-07-30T05:13:16.959Z,20.92
2017-07-30T05:13:57.865Z,20.97
2017-07-30T05:14:38.745Z,20.99
2017-07-30T05:15:19.637Z,20.96
2017-07-30T05:16:00.539Z,21
2017-07-30T05:16:41.424Z,20.99
2017-07-30T05:17:22.325Z,21.05
2017-07-30T05:18:03.211Z,21.06
2017-07-30T05:18:44.100Z,21.14
2017-07-30T05:19:24.984Z,21.17
2017-07-30T05:20:05.871Z,21.2
2017-07-30T05:20:46.763Z,21.21
2017-07-30T05:21:27.654Z,21.17
2017-07-30T05:22:08.548Z,21.15
2017-07-30T05:22:49.446Z,21.21
2017-07-30T05:23:30.341Z,21.27
2017-07-30T05:24:11.222Z,21.32
2017-07-30T05:24:52.110Z,21.37
2017-07-30T05:25:33.013Z,21.36
2017-07-30T05:26:13.915Z,21.42
2017-07-30T05:26:54.807Z,21.45
2017-07-30T05:27:35.700Z,21.5
2017-07-30T05:28:16.598Z,21.46
2017-07-30T05:28:57.482Z,21.48
2017-07-30T05:29:38.378Z,21.5
2017-07-30T05:30:19.277Z,21.55
2017-07-30T05:31:00.163Z,21.62
2017-07-30T05:31:41.043Z,21.61
2017-07-30T05:32:21.952Z,21.57
2017-07-30T05:33:02.833Z,21.62
2017-07-30T05:33:43.727Z,21.73
2017-07-30T05:34:24.628Z,21.82
2017-07-30T05:35:05.506Z,21.88
2017-07-30T05:35:46.394Z,21.89
2017-07-30T05:36:27.298Z,21.92
2017-07-30T05:37:08.193Z,21.95
2017-07-30T05:37:49.101Z,21.98
2017-07-30T05:38:30.002Z,22.02
2017-07-30T05:39:10.887Z,22.07
2017-07-30T05:39:51.873Z,22.07
2017-07-30T05:40:32.783Z,22.11
2017-07-30T05:41:13.676Z,22.11
2017-07-30T05:41:54.578Z,22.18
2017-07-30T05:42:35.458Z,22.15
2017-07-30T05:43:16.349Z,22.17
2017-07-30T05:43:57.250Z,22.2
2017-07-30T05:44:38.135Z,22.17
2017-07-30T05:45:19.082Z,22.23
2017-07-30T05:45:59.987Z,22.26
2017-07-30T05:46:40.960Z,22.26
2017-07-30T05:47:22.178Z,22.32
2017-07-30T05:48:03.065Z,22.3
2017-07-30T05:48:43.956Z,22.38
2017-07-30T05:49:24.851Z,22.5
2017-07-30T05:50:05.748Z,22.53
2017-07-30T05:50:46.643Z,22.54
2017-07-30T05:51:27.525Z,22.57
2017-07-30T05:52:08.415Z,22.54
2017-07-30T05:52:49.304Z,22.63
2017-07-30T05:53:30.245Z,22.75
2017-07-30T05:54:11.163Z,22.8
2017-07-30T05:54:52.050Z,22.73
2017-07-30T05:55:32.956Z,22.93
2017-07-30T05:56:13.852Z,22.83
2017-07-30T05:56:54.745Z,22.85
2017-07-30T05:57:35.631Z,22.78
2017-07-30T05:58:16.533Z,22.83
2017-07-30T05:58:57.422Z,22.85
2017-07-30T05:59:38.318Z,22.85
2017-07-30T06:00:19.207Z,23.03
2017-07-30T06:01:00.102Z,23.03
2017-07-30T06:01:40.987Z,23.1
2017-07-30T06:02:21.901Z,23.15
2017-07-30T06:03:02.777Z,23.13
2017-07-30T06:03:43.669Z,23.15
2017-07-30T06:04:24.571Z,23.09
2017-07-30T06:05:05.456Z,23.13
2017-07-30T06:05:46.352Z,23.12
2017-07-30T06:06:27.247Z,23.21
2017-07-30T06:07:08.142Z,23.28
2017-07-30T06:07:49.033Z,23.31
2017-07-30T06:08:29.922Z,23.37
2017-07-30T06:09:10.812Z,23.41
2017-07-30T06:09:51.707Z,23.44
2017-07-30T06:10:32.599Z,23.44
2017-07-30T06:11:13.501Z,23.54
2017-07-30T06:11:54.376Z,23.55
2017-07-30T06:12:35.267Z,23.54
2017-07-30T06:13:16.177Z,23.68
2017-07-30T06:13:57.050Z,23.69
2017-07-30T06:14:37.951Z,23.73
2017-07-30T06:15:18.851Z,23.74
2017-07-30T06:15:59.738Z,23.81
2017-07-30T06:16:40.633Z,23.86
2017-07-30T06:17:21.540Z,23.92
2017-07-30T06:18:02.446Z,23.81
2017-07-30T06:18:43.356Z,23.81
2017-07-30T06:19:24.245Z,23.93
2017-07-30T06:20:05.142Z,23.93
2017-07-30T06:20:46.040Z,23.91
2017-07-30T06:21:26.941Z,23.93
2017-07-30T06:22:07.838Z,23.98
2017-07-30T06:22:48.733Z,24.06
2017-07-30T06:23:29.630Z,24.11
2017-07-30T06:24:10.528Z,24.28
2017-07-30T06:24:51.427Z,24.24
2017-07-30T06:25:32.348Z,24.29
2017-07-30T06:26:13.224Z,24.3
2017-07-30T06:26:54.120Z,24.42
2017-07-30T06:27:35.016Z,24.45
2017-07-30T06:28:15.912Z,24.43
2017-07-30T06:28:56.803Z,24.51
2017-07-30T06:29:37.708Z,24.58
2017-07-30T06:30:18.594Z,24.63
2017-07-30T06:30:59.503Z,24.74
2017-07-30T06:31:40.398Z,24.69
2017-07-30T06:32:21.295Z,24.74
2017-07-30T06:33:02.194Z,24.91
2017-07-30T06:33:43.089Z,24.91
2017-07-30T06:34:23.976Z,25.1
2017-07-30T06:35:04.886Z,25.13
2017-07-30T06:35:45.777Z,25.32
2017-07-30T06:36:26.650Z,25.62
2017-07-30T06:37:07.539Z,26.06
2017-07-30T06:37:48.456Z,26.55
2017-07-30T06:38:29.328Z,26.84
2017-07-30T06:39:10.194Z,27.2
2017-07-30T06:39:51.058Z,27.58
2017-07-30T06:40:31.923Z,28.05
2017-07-30T06:41:12.821Z,28.3
2017-07-30T06:41:53.712Z,28.41
2017-07-30T06:42:34.581Z,28.67
2017-07-30T06:43:15.457Z,28.76
2017-07-30T06:43:56.341Z,28.94
2017-07-30T06:44:37.243Z,29.16
2017-07-30T06:45:18.128Z,29.44
2017-07-30T06:45:59.015Z,29.63
2017-07-30T06:46:39.948Z,29.76
2017-07-30T06:47:20.949Z,29.88
2017-07-30T06:48:01.846Z,30.06
2017-07-30T06:48:42.722Z,30.08
2017-07-30T06:49:23.584Z,30.23
2017-07-30T06:50:04.478Z,30.4
2017-07-30T06:50:45.369Z,30.34
2017-07-30T06:52:23.839Z,30.77
2017-07-30T06:53:04.730Z,30.61
2017-07-30T06:53:45.674Z,30.5
2017-07-30T06:54:26.552Z,30.5
2017-07-30T06:55:07.428Z,30.46
2017-07-30T06:55:48.318Z,30.59
2017-07-30T06:56:29.230Z,30.32
2017-07-30T06:57:10.135Z,30.06
2017-07-30T06:57:51.042Z,29.94
2017-07-30T06:58:31.962Z,29.98
2017-07-30T06:59:12.882Z,30.18
2017-07-30T06:59:53.748Z,30.44
2017-07-30T07:00:34.688Z,30.77
2017-07-30T07:01:15.566Z,30.91
2017-07-30T07:01:56.438Z,31.09
2017-07-30T07:02:37.350Z,31.33
2017-07-30T07:03:18.244Z,31.49
2017-07-30T07:03:59.134Z,31.71
2017-07-30T07:04:40.052Z,31.8
2017-07-30T07:05:20.924Z,32.08
2017-07-30T07:06:01.820Z,32.3
2017-07-30T07:06:42.719Z,32.63
2017-07-30T07:07:23.600Z,32.8
2017-07-30T07:08:04.537Z,32.93
2017-07-30T07:08:45.429Z,32.96
2017-07-30T07:09:26.342Z,32.82
2017-07-30T07:10:07.231Z,32.55
2017-07-30T07:10:48.137Z,32.87
2017-07-30T07:11:29.034Z,32.86
2017-07-30T07:12:09.947Z,33.04
2017-07-30T07:12:50.847Z,33.05
2017-07-30T07:13:31.728Z,32.9
2017-07-30T07:14:12.620Z,32.68
2017-07-30T07:14:53.509Z,32.53
2017-07-30T07:15:34.396Z,32.82
2017-07-30T07:16:15.308Z,32.96
2017-07-30T07:16:56.234Z,33.27
2017-07-30T07:17:37.140Z,33.2
2017-07-30T07:18:18.056Z,33.17
2017-07-30T07:18:58.967Z,33.07
2017-07-30T07:19:39.859Z,32.97
2017-07-30T07:20:20.789Z,32.26
2017-07-30T07:21:01.673Z,32.65
2017-07-30T07:21:42.564Z,32.68
2017-07-30T07:22:23.475Z,32.46
2017-07-30T07:23:04.392Z,32.48
2017-07-30T07:23:45.288Z,32.37
2017-07-30T07:24:26.181Z,32.46
2017-07-30T07:25:07.091Z,32.19
2017-07-30T07:25:47.984Z,32.33
2017-07-30T07:26:28.882Z,32.3
2017-07-30T07:27:09.779Z,32.56
2017-07-30T07:27:50.677Z,32.48
2017-07-30T07:28:31.579Z,32.59
2017-07-30T07:29:12.481Z,32.31
2017-07-30T07:29:53.368Z,32.15
2017-07-30T07:30:34.259Z,31.89
2017-07-30T07:31:15.150Z,32.11
2017-07-30T07:31:56.052Z,32.07
2017-07-30T07:32:36.961Z,32.15
2017-07-30T07:33:17.836Z,32.15
2017-07-30T07:33:58.729Z,32.18
2017-07-30T07:34:39.638Z,32.26
2017-07-30T07:35:20.534Z,32.12
2017-07-30T07:36:01.434Z,32.43
2017-07-30T07:36:42.319Z,32.7
2017-07-30T07:37:23.221Z,32.89
2017-07-30T07:38:04.115Z,33.05
2017-07-30T07:38:45.016Z,33.23
2017-07-30T07:39:25.920Z,33.37
2017-07-30T07:40:06.823Z,33.04
2017-07-30T07:40:47.717Z,32.85
2017-07-30T07:41:28.622Z,32.58
2017-07-30T07:42:09.532Z,32.49
2017-07-30T07:42:50.425Z,32.34
2017-07-30T07:43:31.328Z,32.15
2017-07-30T07:44:12.228Z,32.33
2017-07-30T07:44:53.144Z,32.26
2017-07-30T07:45:34.050Z,32.3
2017-07-30T07:46:14.941Z,32.33
2017-07-30T07:46:55.849Z,32.41
2017-07-30T07:47:36.753Z,32.46
2017-07-30T07:48:17.660Z,32.56
2017-07-30T07:48:58.555Z,32.33
2017-07-30T07:49:39.476Z,32.38
2017-07-30T07:50:20.369Z,32.3
2017-07-30T07:51:01.285Z,32.55
2017-07-30T07:51:42.199Z,32.46
2017-07-30T07:52:23.095Z,32.49
2017-07-30T07:53:03.998Z,32.58
2017-07-30T07:53:44.888Z,32.6
2017-07-30T07:54:25.797Z,32.49
2017-07-30T07:55:06.690Z,32.37
2017-07-30T07:55:47.585Z,32.15
2017-07-30T07:56:28.503Z,32.41
2017-07-30T07:57:09.387Z,32.55
2017-07-30T07:57:50.296Z,32.46
2017-07-30T07:58:31.192Z,32.45
2017-07-30T07:59:12.103Z,32.38
2017-07-30T08:01:05.787Z,32.16
2017-07-30T08:01:46.679Z,32.18
2017-07-30T08:02:27.583Z,32.16
2017-07-30T08:03:08.489Z,32.43
2017-07-30T08:03:49.374Z,32.55
2017-07-30T08:04:30.299Z,32.78
2017-07-30T08:05:11.210Z,32.93
2017-07-30T08:05:52.098Z,33.15
2017-07-30T08:06:32.985Z,33.36
2017-07-30T08:07:13.895Z,33.42
2017-07-30T08:07:54.808Z,33.49
2017-07-30T08:08:35.715Z,33.08
2017-07-30T08:09:16.621Z,32.92
2017-07-30T08:09:57.545Z,32.75
2017-07-30T08:10:38.441Z,32.46
2017-07-30T08:11:19.331Z,32.3
2017-07-30T08:12:00.242Z,32.22
2017-07-30T08:12:41.137Z,32.16
2017-07-30T08:13:22.044Z,32.18
2017-07-30T08:14:02.938Z,32.07
2017-07-30T08:14:43.849Z,32.16
2017-07-30T08:15:24.757Z,32.16
2017-07-30T08:16:05.708Z,32.34
2017-07-30T08:16:46.617Z,32.16
2017-07-30T08:17:27.567Z,32.18
2017-07-30T08:18:08.511Z,32.14
2017-07-30T08:18:49.498Z,32.11
2017-07-30T08:19:30.386Z,32.3
2017-07-30T08:20:11.298Z,32.53
2017-07-30T08:20:52.205Z,32.65
2017-07-30T08:21:33.106Z,32.67
2017-07-30T08:22:14.016Z,33.04
2017-07-30T08:22:54.919Z,33.02
2017-07-30T08:23:35.816Z,33.23
2017-07-30T08:25:29.529Z,32.73
2017-07-30T08:26:10.452Z,32.95
2017-07-30T08:26:51.345Z,32.51
2017-07-30T08:27:32.250Z,32.93
2017-07-30T08:28:13.168Z,32.9
2017-07-30T08:28:54.063Z,33.02
2017-07-30T08:29:34.981Z,33.3
2017-07-30T08:30:15.892Z,33.22
2017-07-30T08:30:56.819Z,33.58
2017-07-30T08:31:37.733Z,33.99
2017-07-30T08:32:18.653Z,33.87
2017-07-30T08:32:59.581Z,34.16
2017-07-30T08:33:40.486Z,34.23
2017-07-30T08:34:21.389Z,34.42
2017-07-30T08:35:02.304Z,34.55
2017-07-30T08:35:43.229Z,34.7
2017-07-30T08:36:24.136Z,34.78
2017-07-30T08:37:05.068Z,34.36
2017-07-30T08:37:45.987Z,34.47
2017-07-30T08:38:26.933Z,34.73
2017-07-30T08:39:07.841Z,34.92
2017-07-30T08:39:48.759Z,34.88
2017-07-30T08:40:29.679Z,34.93
2017-07-30T08:41:10.585Z,34.78
2017-07-30T08:41:51.486Z,34.75
2017-07-30T08:43:19.855Z,34.33
2017-07-30T08:44:00.764Z,34.38
2017-07-30T08:44:41.679Z,34.03
2017-07-30T08:45:22.589Z,33.99
2017-07-30T08:46:03.499Z,33.9
2017-07-30T08:46:44.418Z,33.95
2017-07-30T08:47:25.330Z,34.11
2017-07-30T08:48:06.232Z,34.25
2017-07-30T08:48:47.126Z,34.51
2017-07-30T08:49:28.047Z,34.57
2017-07-30T08:50:08.964Z,34.62
2017-07-30T08:50:49.870Z,34.89
2017-07-30T08:51:30.781Z,34.71
2017-07-30T08:52:11.700Z,34.96
2017-07-30T08:52:52.619Z,34.96
2017-07-30T08:53:33.527Z,35.46
2017-07-30T08:54:14.471Z,35.71
2017-07-30T08:54:55.373Z,35.9
2017-07-30T08:55:36.297Z,36.43